createdAt,value
2018-12-22T00:02:28.654Z,99048.64
2018-12-22T00:05:32.020Z,99046.35
2018-12-22T00:08:35.167Z,99059.64
2018-12-22T00:11:38.196Z,99064.58
2018-12-22T00:14:41.372Z,99067.61
2018-12-22T00:17:44.509Z,99066.77
2018-12-22T00:20:47.600Z,99067.23
2018-12-22T00:23:50.677Z,99062.44
2018-12-22T00:26:53.659Z,99054.95
2018-12-22T00:29:56.700Z,99050.34
2018-12-22T00:32:59.998Z,99060.59
2018-12-22T00:36:03.148Z,99056.61
2018-12-22T00:39:07.206Z,99065.91
2018-12-22T00:42:10.311Z,99058.64
2018-12-22T00:45:13.372Z,99062.30
2018-12-22T00:48:16.480Z,99070.13
2018-12-22T00:51:19.740Z,99065.63
2018-12-22T00:54:22.699Z,99076.25
2018-12-22T00:57:25.688Z,99087.25
2018-12-22T01:00:31.175Z,99093.05
2018-12-22T01:03:35.595Z,99086.89
2018-12-22T01:06:38.550Z,99095.84
2018-12-22T01:09:41.659Z,99102.83
2018-12-22T01:12:44.633Z,99102.34
2018-12-22T01:15:47.570Z,99116.82
2018-12-22T01:18:51.529Z,99109.98
2018-12-22T01:21:54.469Z,99116.11
2018-12-22T01:24:58.527Z,99114.30
2018-12-22T01:28:01.620Z,99112.84
2018-12-22T01:31:04.828Z,99124.80
2018-12-22T01:34:09.989Z,99124.94
2018-12-22T01:37:13.992Z,99124.09
2018-12-22T01:40:17.219Z,99132.77
2018-12-22T01:43:20.262Z,99134.43
2018-12-22T01:46:23.248Z,99131.92
2018-12-22T01:49:26.652Z,99125.78
2018-12-22T01:52:29.833Z,99131.44
2018-12-22T01:55:32.777Z,99137.23
2018-12-22T01:58:36.856Z,99145.20
2018-12-22T02:01:41.070Z,99136.75
2018-12-22T02:04:44.046Z,99135.09
2018-12-22T02:07:48.063Z,99135.42
2018-12-22T02:10:51.051Z,99137.23
2018-12-22T02:13:54.140Z,99143.73
2018-12-22T02:16:57.244Z,99151.23
2018-12-22T02:20:00.235Z,99144.21
2018-12-22T02:23:03.308Z,99136.09
2018-12-22T02:26:06.306Z,99134.77
2018-12-22T02:29:09.447Z,99137.42
2018-12-22T02:32:12.480Z,99134.43
2018-12-22T02:35:15.535Z,99127.16
2018-12-22T02:38:18.616Z,99133.81
2018-12-22T02:41:21.958Z,99129.83
2018-12-22T02:44:24.950Z,99134.48
2018-12-22T02:47:27.951Z,99134.29
2018-12-22T02:50:31.027Z,99132.34
2018-12-22T02:53:34.083Z,99124.84
2018-12-22T02:56:37.357Z,99130.50
2018-12-22T02:59:40.714Z,99139.80
2018-12-22T03:02:48.837Z,99139.46
2018-12-22T03:05:51.808Z,99141.13
2018-12-22T03:08:54.915Z,99140.31
2018-12-22T03:11:57.894Z,99136.66
2018-12-22T03:15:00.988Z,99141.13
2018-12-22T03:18:03.951Z,99145.48
2018-12-22T03:21:07.180Z,99142.83
2018-12-22T03:24:10.259Z,99137.52
2018-12-22T03:27:14.394Z,99137.52
2018-12-22T03:30:17.449Z,99139.52
2018-12-22T03:33:20.622Z,99137.52
2018-12-22T03:36:23.915Z,99143.50
2018-12-22T03:39:27.227Z,99145.34
2018-12-22T03:42:31.519Z,99147.48
2018-12-22T03:45:34.762Z,99156.79
2018-12-22T03:48:37.855Z,99156.79
2018-12-22T03:51:41.039Z,99164.63
2018-12-22T03:54:45.266Z,99174.77
2018-12-22T03:57:48.359Z,99178.05
2018-12-22T04:00:51.495Z,99184.70
2018-12-22T04:03:54.658Z,99188.55
2018-12-22T04:06:59.958Z,99188.06
2018-12-22T04:10:03.037Z,99183.09
2018-12-22T04:13:06.083Z,99186.73
2018-12-22T04:16:12.843Z,99183.09
2018-12-22T04:19:16.950Z,99187.55
2018-12-22T04:22:20.049Z,99183.94
2018-12-22T04:25:23.042Z,99183.09
2018-12-22T04:28:26.092Z,99189.25
2018-12-22T04:31:29.177Z,99188.41
2018-12-22T04:34:32.429Z,99196.72
2018-12-22T04:37:36.424Z,99193.44
2018-12-22T04:40:39.432Z,99201.07
2018-12-22T04:43:46.005Z,99200.08
2018-12-22T04:46:49.024Z,99209.38
2018-12-22T04:49:52.230Z,99197.09
2018-12-22T04:52:55.471Z,99198.75
2018-12-22T04:55:59.485Z,99195.24
2018-12-22T04:59:02.550Z,99201.41
2018-12-22T05:02:05.660Z,99192.73
2018-12-22T05:05:08.648Z,99207.44
2018-12-22T05:08:13.704Z,99197.42
2018-12-22T05:11:16.958Z,99195.10
2018-12-22T05:14:20.262Z,99198.75
2018-12-22T05:17:23.203Z,99195.81
2018-12-22T05:20:26.154Z,99198.80
2018-12-22T05:23:29.303Z,99205.11
2018-12-22T05:26:32.551Z,99208.11
2018-12-22T05:29:35.652Z,99206.44
2018-12-22T05:32:38.779Z,99215.09
2018-12-22T05:35:41.945Z,99217.75
2018-12-22T05:38:45.192Z,99214.42
2018-12-22T05:41:48.267Z,99212.09
2018-12-22T05:44:51.359Z,99221.97
2018-12-22T05:47:54.607Z,99214.61
2018-12-22T05:50:57.582Z,99223.44
2018-12-22T05:54:00.533Z,99230.56
2018-12-22T05:57:04.583Z,99235.41
2018-12-22T06:00:08.515Z,99236.22
2018-12-22T06:03:11.751Z,99234.41
2018-12-22T06:06:14.860Z,99230.08
2018-12-22T06:09:18.046Z,99242.72
2018-12-22T06:12:21.155Z,99242.24
2018-12-22T06:15:24.119Z,99249.52
2018-12-22T06:21:41.399Z,99256.39
2018-12-22T06:24:44.396Z,99256.39
2018-12-22T06:27:47.370Z,99259.05
2018-12-22T06:30:50.368Z,99261.70
2018-12-22T06:33:54.230Z,99255.06
2018-12-22T06:36:57.982Z,99251.20
2018-12-22T06:40:01.388Z,99252.03
2018-12-22T06:43:04.512Z,99251.89
2018-12-22T06:46:07.791Z,99257.72
2018-12-22T06:49:10.866Z,99258.05
2018-12-22T06:52:14.352Z,99257.91
2018-12-22T06:55:17.399Z,99265.04
2018-12-22T06:58:20.791Z,99260.20
2018-12-22T07:01:23.945Z,99257.06
2018-12-22T07:04:27.171Z,99262.37
2018-12-22T07:07:30.300Z,99261.90
2018-12-22T07:10:33.596Z,99257.55
2018-12-22T07:13:36.839Z,99265.38
2018-12-22T07:16:39.969Z,99270.69
2018-12-22T07:19:43.869Z,99267.70
2018-12-22T07:22:47.004Z,99261.39
2018-12-22T07:25:51.167Z,99262.72
2018-12-22T07:28:55.313Z,99260.44
2018-12-22T07:31:58.632Z,99255.11
2018-12-22T07:35:01.742Z,99246.14
2018-12-22T07:38:04.943Z,99239.50
2018-12-22T07:41:08.132Z,99239.98
2018-12-22T07:44:11.218Z,99242.16
2018-12-22T07:47:14.502Z,99243.48
2018-12-22T07:50:17.795Z,99241.16
2018-12-22T07:53:21.079Z,99235.84
2018-12-22T07:56:24.869Z,99233.56
2018-12-22T07:59:28.093Z,99241.88
2018-12-22T08:02:31.539Z,99237.89
2018-12-22T08:05:38.877Z,99235.56
2018-12-22T08:08:40.842Z,99237.89
2018-12-22T08:11:44.763Z,99228.92
2018-12-22T08:14:47.987Z,99216.28
2018-12-22T08:17:51.171Z,99207.65
2018-12-22T08:20:54.382Z,99212.83
2018-12-22T08:23:57.505Z,99211.02
2018-12-22T08:27:00.563Z,99213.67
2018-12-22T08:30:03.596Z,99218.00
2018-12-22T08:33:07.632Z,99221.00
2018-12-22T08:36:10.990Z,99221.65
2018-12-22T08:39:14.052Z,99231.63
2018-12-22T08:42:17.138Z,99240.27
2018-12-22T08:45:20.265Z,99243.73
2018-12-22T08:48:23.466Z,99244.25
2018-12-22T08:51:26.880Z,99250.25
2018-12-22T08:54:29.958Z,99244.59
2018-12-22T08:57:33.119Z,99242.27
2018-12-22T09:00:36.178Z,99242.27
2018-12-22T09:03:39.305Z,99238.28
2018-12-22T09:06:43.534Z,99246.12
2018-12-22T09:09:50.155Z,99242.64
2018-12-22T09:12:53.410Z,99242.98
2018-12-22T09:15:56.574Z,99245.69
2018-12-22T09:18:59.704Z,99247.36
2018-12-22T09:22:02.959Z,99239.75
2018-12-22T09:25:07.408Z,99237.43
2018-12-22T09:28:10.472Z,99231.55
2018-12-22T09:31:13.685Z,99230.02
2018-12-22T09:34:16.800Z,99229.34
2018-12-22T09:37:19.880Z,99225.36
2018-12-22T09:40:24.191Z,99219.05
2018-12-22T09:43:27.383Z,99219.66
2018-12-22T09:46:30.483Z,99211.69
2018-12-22T09:49:33.580Z,99209.55
2018-12-22T09:52:36.600Z,99196.73
2018-12-22T09:55:39.839Z,99194.07
2018-12-22T09:58:43.216Z,99188.56
2018-12-22T10:01:46.325Z,99191.08
2018-12-22T10:04:50.497Z,99183.58
2018-12-22T10:07:53.511Z,99186.37
2018-12-22T10:10:57.623Z,99194.87
2018-12-22T10:14:00.671Z,99191.98
2018-12-22T10:17:04.914Z,99189.98
2018-12-22T10:20:09.023Z,99189.84
2018-12-22T10:23:13.364Z,99211.73
2018-12-22T10:26:16.565Z,99207.83
2018-12-22T10:29:19.702Z,99206.50
2018-12-22T10:32:22.791Z,99214.27
2018-12-22T10:35:29.693Z,99219.67
2018-12-22T10:38:33.899Z,99213.31
2018-12-22T10:41:36.944Z,99220.72
2018-12-22T10:44:40.018Z,99224.03
2018-12-22T10:47:44.420Z,99224.92
2018-12-22T10:50:48.552Z,99223.46
2018-12-22T10:53:51.799Z,99240.05
2018-12-22T10:56:54.984Z,99244.32
2018-12-22T10:59:58.034Z,99242.52
2018-12-22T11:03:02.215Z,99253.90
2018-12-22T11:06:05.488Z,99280.71
2018-12-22T11:09:11.854Z,99287.02
2018-12-22T11:12:16.023Z,99291.62
2018-12-22T11:15:19.291Z,99293.93
2018-12-22T11:18:22.526Z,99313.48
2018-12-22T11:21:27.003Z,99323.09
2018-12-22T11:24:30.195Z,99320.70
2018-12-22T11:27:33.323Z,99336.64
2018-12-22T11:30:39.049Z,99337.60
2018-12-22T11:33:42.068Z,99352.98
2018-12-22T11:36:45.122Z,99354.11
2018-12-22T11:39:48.208Z,99355.44
2018-12-22T11:42:53.403Z,99365.69
2018-12-22T11:45:57.534Z,99359.70
2018-12-22T11:49:09.756Z,99367.80
2018-12-22T11:52:12.880Z,99394.50
2018-12-22T11:55:16.144Z,99404.27
2018-12-22T11:58:23.233Z,99421.32
2018-12-22T12:01:32.397Z,99427.11
2018-12-22T12:04:38.133Z,99429.93
2018-12-22T12:07:41.499Z,99451.52
2018-12-22T12:10:47.800Z,99445.14
2018-12-22T12:13:51.621Z,99468.70
2018-12-22T12:17:03.306Z,99479.67
2018-12-22T12:20:06.510Z,99489.36
2018-12-22T12:23:09.689Z,99487.55
2018-12-22T12:26:12.774Z,99493.13
2018-12-22T12:29:16.808Z,99508.08
2018-12-22T12:32:19.887Z,99505.93
2018-12-22T12:35:22.983Z,99514.38
2018-12-22T12:38:26.225Z,99525.98
2018-12-22T12:41:31.502Z,99534.89
2018-12-22T12:44:36.381Z,99548.89
2018-12-22T12:47:45.554Z,99557.72
2018-12-22T12:50:49.791Z,99560.38
2018-12-22T12:53:54.883Z,99566.16
2018-12-22T12:57:01.311Z,99579.56
2018-12-22T13:00:04.488Z,99588.13
2018-12-22T13:03:08.484Z,99600.47
2018-12-22T13:06:11.724Z,99597.55
2018-12-22T13:09:15.919Z,99606.16
2018-12-22T13:12:23.835Z,99619.09
2018-12-22T13:15:26.924Z,99622.34
2018-12-22T13:18:31.211Z,99640.93
2018-12-22T13:21:34.252Z,99645.51
2018-12-22T13:24:37.312Z,99651.80
2018-12-22T13:27:40.300Z,99667.03
2018-12-22T13:30:43.363Z,99681.26
2018-12-22T13:33:46.483Z,99684.03
2018-12-22T13:36:51.732Z,99699.14
2018-12-22T13:39:55.735Z,99708.91
2018-12-22T13:42:58.931Z,99711.69
2018-12-22T13:46:01.906Z,99723.28
2018-12-22T13:49:05.083Z,99725.20
2018-12-22T13:52:08.428Z,99730.52
2018-12-22T13:55:12.414Z,99740.16
2018-12-22T13:58:15.740Z,99748.13
2018-12-22T14:01:22.181Z,99758.05
2018-12-22T14:04:26.207Z,99773.23
2018-12-22T14:07:29.288Z,99782.53
2018-12-22T14:10:32.404Z,99778.41
2018-12-22T14:13:37.628Z,99793.36
2018-12-22T14:16:46.027Z,99796.43
2018-12-22T14:19:53.655Z,99802.64
2018-12-22T14:22:57.363Z,99809.28
2018-12-22T14:26:02.111Z,99819.20
2018-12-22T14:29:07.119Z,99826.31
2018-12-22T14:32:11.315Z,99834.77
2018-12-22T14:35:27.475Z,99843.44
2018-12-22T14:38:36.472Z,99843.09
2018-12-22T14:41:39.549Z,99850.70
2018-12-22T14:44:42.619Z,99857.92
2018-12-22T14:47:45.752Z,99863.23
2018-12-22T14:50:48.844Z,99871.44
2018-12-22T14:53:52.095Z,99880.02
2018-12-22T14:56:55.367Z,99889.16
2018-12-22T14:59:58.639Z,99896.77
2018-12-22T15:03:01.610Z,99911.38
2018-12-22T15:06:05.737Z,99914.14
2018-12-22T15:09:13.232Z,99925.61
2018-12-22T15:12:14.066Z,99927.53
2018-12-22T15:15:18.454Z,99936.34
2018-12-22T15:18:21.552Z,99944.89
2018-12-22T15:21:24.543Z,99948.17
2018-12-22T15:24:29.611Z,99946.34
2018-12-22T15:27:32.799Z,99950.09
2018-12-22T15:30:35.779Z,99951.41
2018-12-22T15:33:38.876Z,99952.73
2018-12-22T15:36:41.951Z,99957.34
2018-12-22T15:39:45.052Z,99953.83
2018-12-22T15:42:48.299Z,99959.99
2018-12-22T15:45:51.551Z,99971.55
2018-12-22T15:48:55.534Z,99983.14
2018-12-22T15:51:59.755Z,99985.79
2018-12-22T15:55:05.798Z,99990.62
2018-12-22T15:58:09.006Z,99996.05
2018-12-22T16:01:12.075Z,100005.69
2018-12-22T16:04:15.105Z,100005.45
2018-12-22T16:07:18.405Z,100002.80
2018-12-22T16:10:21.591Z,100005.34
2018-12-22T16:13:24.766Z,100004.37
2018-12-22T16:16:28.037Z,100004.01
2018-12-22T16:19:31.183Z,100007.02
2018-12-22T16:22:34.179Z,100009.67
2018-12-22T16:25:37.256Z,100013.07
2018-12-22T16:28:45.931Z,100009.91
2018-12-22T16:31:49.230Z,100013.07
2018-12-22T16:34:52.499Z,100013.31
2018-12-22T16:37:55.452Z,100017.41
2018-12-22T16:40:58.786Z,100023.42
2018-12-22T16:44:02.023Z,100024.16
2018-12-22T16:47:06.164Z,100026.81
2018-12-22T16:50:11.422Z,100031.16
2018-12-22T16:53:14.393Z,100033.45
2018-12-22T16:56:17.615Z,100035.25
2018-12-22T16:59:20.673Z,100039.86
2018-12-22T17:02:28.824Z,100039.86
2018-12-22T17:05:31.902Z,100047.08
2018-12-22T17:08:34.987Z,100039.00
2018-12-22T17:11:38.092Z,100052.39
2018-12-22T17:14:43.203Z,100052.27
2018-12-22T17:17:46.295Z,100063.00
2018-12-22T17:20:54.959Z,100066.41
2018-12-22T17:24:05.358Z,100072.30
2018-12-22T17:27:08.620Z,100079.67
2018-12-22T17:30:11.768Z,100080.03
2018-12-22T17:33:18.948Z,100081.00
2018-12-22T17:36:23.034Z,100085.84
2018-12-22T17:39:26.279Z,100077.37
2018-12-22T17:42:29.358Z,100070.73
2018-12-22T17:45:32.515Z,100076.91
2018-12-22T17:48:35.803Z,100071.13
2018-12-22T17:51:39.418Z,100068.83
2018-12-22T17:54:42.449Z,100070.16
2018-12-22T17:57:45.526Z,100083.43
2018-12-22T18:00:48.659Z,100082.92
2018-12-22T18:03:51.871Z,100092.61
2018-12-22T18:06:55.007Z,100094.17
2018-12-22T18:09:59.226Z,100095.14
2018-12-22T18:13:02.232Z,100091.41
2018-12-22T18:16:05.412Z,100091.63
2018-12-22T18:19:10.455Z,100088.13
2018-12-22T18:22:13.413Z,100086.44
2018-12-22T18:25:17.484Z,100080.27
2018-12-22T18:28:21.730Z,100074.49
2018-12-22T18:31:24.986Z,100070.52
2018-12-22T18:34:28.159Z,100073.17
2018-12-22T18:37:31.435Z,100069.54
2018-12-22T18:40:35.664Z,100076.56
2018-12-22T18:43:38.743Z,100080.16
2018-12-22T18:46:41.862Z,100082.45
2018-12-22T18:49:44.937Z,100086.21
2018-12-22T18:52:48.014Z,100089.34
2018-12-22T18:55:51.142Z,100093.81
2018-12-22T18:58:56.311Z,100093.81
2018-12-22T19:01:59.275Z,100090.77
2018-12-22T19:05:03.404Z,100084.53
2018-12-22T19:08:11.639Z,100094.64
2018-12-22T19:11:16.767Z,100090.55
2018-12-22T19:14:19.979Z,100093.81
2018-12-22T19:17:23.419Z,100100.06
2018-12-22T19:20:35.578Z,100102.25
2018-12-22T19:23:38.714Z,100098.27
2018-12-22T19:26:41.803Z,100088.87
2018-12-22T19:29:44.987Z,100089.97
2018-12-22T19:32:47.993Z,100087.18
2018-12-22T19:35:51.085Z,100088.02
2018-12-22T19:38:55.387Z,100095.50
2018-12-22T19:42:02.897Z,100082.23
2018-12-22T19:45:07.066Z,100089.22
2018-12-22T19:48:10.199Z,100083.09
2018-12-22T19:51:13.292Z,100078.98
2018-12-22T19:54:16.385Z,100082.97
2018-12-22T19:57:19.477Z,100085.74
2018-12-22T20:00:22.566Z,100089.22
2018-12-22T20:03:26.703Z,100087.78
2018-12-22T20:06:29.859Z,100097.58
2018-12-22T20:09:32.863Z,100101.44
2018-12-22T20:12:35.992Z,100102.49
2018-12-22T20:15:39.215Z,100106.00
2018-12-22T20:18:43.160Z,100102.88
2018-12-22T20:21:46.371Z,100104.68
2018-12-22T20:24:49.403Z,100109.52
2018-12-22T20:27:52.456Z,100109.02
2018-12-22T20:30:55.545Z,100115.88
2018-12-22T20:33:58.735Z,100105.77
2018-12-22T20:37:01.912Z,100110.57
2018-12-22T20:40:06.913Z,100108.77
2018-12-22T20:43:11.055Z,100119.39
2018-12-22T20:46:14.161Z,100124.23
2018-12-22T20:49:17.254Z,100122.63
2018-12-22T20:52:20.272Z,100127.94
2018-12-22T20:55:25.486Z,100130.01
2018-12-22T20:58:30.856Z,100130.59
2018-12-22T21:01:33.815Z,100128.44
2018-12-22T21:04:37.023Z,100129.88
2018-12-22T21:07:40.103Z,100124.07
2018-12-22T21:10:43.268Z,100132.53
2018-12-22T21:13:46.212Z,100133.50
2018-12-22T21:16:49.291Z,100131.56
2018-12-22T21:19:52.531Z,100139.17
2018-12-22T21:22:56.483Z,100140.00
2018-12-22T21:26:00.719Z,100143.16
2018-12-22T21:29:03.654Z,100143.27
2018-12-22T21:32:06.795Z,100149.79
2018-12-22T21:35:09.880Z,100156.06
2018-12-22T21:38:14.015Z,100156.64
2018-12-22T21:41:18.107Z,100164.61
2018-12-22T21:44:21.279Z,100168.12
2018-12-22T21:47:24.283Z,100177.88
2018-12-22T21:50:28.393Z,100178.85
2018-12-22T21:53:31.506Z,100188.61
2018-12-22T21:56:34.672Z,100189.30
2018-12-22T21:59:37.767Z,100182.66
2018-12-22T22:02:41.895Z,100181.73
2018-12-22T22:05:44.903Z,100181.95
2018-12-22T22:08:47.971Z,100176.28
2018-12-22T22:11:51.252Z,100179.41
2018-12-22T22:14:54.381Z,100187.47
2018-12-22T22:17:57.632Z,100185.05
2018-12-22T22:21:00.915Z,100183.36
2018-12-22T22:24:03.925Z,100186.37
2018-12-22T22:27:07.243Z,100187.91
2018-12-22T22:30:11.415Z,100194.08
2018-12-22T22:33:14.653Z,100184.98
2018-12-22T22:36:18.885Z,100191.75
2018-12-22T22:39:22.020Z,100200.19
2018-12-22T22:42:25.055Z,100210.22
2018-12-22T22:45:28.172Z,100206.10
2018-12-22T22:48:31.391Z,100208.86
2018-12-22T22:51:34.555Z,100210.88
2018-12-22T22:54:38.655Z,100204.74
2018-12-22T22:57:42.927Z,100214.14
2018-12-22T23:00:46.615Z,100210.52
2018-12-22T23:03:49.766Z,100211.59
2018-12-22T23:06:53.898Z,100212.17
2018-12-22T23:09:57.068Z,100210.84
2018-12-22T23:16:12.980Z,100217.33
2018-12-22T23:19:16.076Z,100217.08
2018-12-22T23:22:19.139Z,100223.24
2018-12-22T23:25:22.228Z,100225.72
2018-12-22T23:28:25.350Z,100220.80
2018-12-22T23:31:28.435Z,100229.69
2018-12-22T23:34:31.543Z,100222.23
2018-12-22T23:37:34.582Z,100223.67
2018-12-22T23:40:38.127Z,100227.75
2018-12-22T23:43:43.408Z,100237.04
2018-12-22T23:46:46.698Z,100235.24
2018-12-22T23:49:50.899Z,100240.16
2018-12-22T23:52:54.489Z,100238.72
2018-12-22T23:55:57.625Z,100238.83
2018-12-22T23:59:00.944Z,100245.10
